createdAt,value
2022-12-27T00:01:45.457Z,13.27
2022-12-27T00:04:13.748Z,13.27
2022-12-27T00:06:42.253Z,13.27
2022-12-27T00:09:10.987Z,12.86
2022-12-27T00:11:39.826Z,12.56
2022-12-27T00:14:08.400Z,12.69
2022-12-27T00:16:38.699Z,12.67
2022-12-27T00:19:07.226Z,12.73
2022-12-27T00:21:36.602Z,12.41
2022-12-27T00:24:05.269Z,12.46
2022-12-27T00:26:34.752Z,12.42
2022-12-27T00:29:03.152Z,11.40
2022-12-27T00:31:32.586Z,11.44
2022-12-27T00:34:04.098Z,11.27
2022-12-27T00:36:32.900Z,11.25
2022-12-27T00:39:01.964Z,11.24
2022-12-27T00:41:30.295Z,11.36
2022-12-27T00:43:58.511Z,11.38
2022-12-27T00:46:26.769Z,11.09
2022-12-27T00:48:55.415Z,11.43
2022-12-27T00:51:26.331Z,11.33
2022-12-27T00:53:54.844Z,11.10
2022-12-27T00:56:25.581Z,11.02
2022-12-27T00:58:55.183Z,11.19
2022-12-27T01:01:24.677Z,11.30
2022-12-27T01:03:53.371Z,11.38
2022-12-27T01:06:23.353Z,11.25
2022-12-27T01:08:53.101Z,11.28
2022-12-27T01:11:21.428Z,11.10
2022-12-27T01:13:49.936Z,11.08
2022-12-27T01:16:20.296Z,11.28
2022-12-27T01:18:49.303Z,11.45
2022-12-27T01:21:19.623Z,11.21
2022-12-27T01:23:48.190Z,11.19
2022-12-27T01:26:19.659Z,11.13
2022-12-27T01:28:48.556Z,11.16
2022-12-27T01:31:19.008Z,11.50
2022-12-27T01:33:47.449Z,11.33
2022-12-27T01:36:25.093Z,11.14
2022-12-27T01:38:53.656Z,11.24
2022-12-27T01:41:42.859Z,11.04
2022-12-27T01:44:50.238Z,11.04
2022-12-27T01:47:23.119Z,10.87
2022-12-27T01:49:57.651Z,10.86
2022-12-27T01:52:28.173Z,10.85
2022-12-27T01:55:00.005Z,10.87
2022-12-27T01:57:29.951Z,11.01
2022-12-27T01:59:58.313Z,10.74
2022-12-27T02:02:26.822Z,10.80
2022-12-27T02:04:55.447Z,10.60
2022-12-27T02:07:26.412Z,10.58
2022-12-27T02:09:58.163Z,10.77
2022-12-27T02:12:26.856Z,10.99
2022-12-27T02:14:56.467Z,11.02
2022-12-27T02:17:27.892Z,10.75
2022-12-27T02:20:01.348Z,10.82
2022-12-27T02:23:15.695Z,10.95
2022-12-27T02:26:09.071Z,10.89
2022-12-27T02:28:53.049Z,11.12
2022-12-27T02:31:28.650Z,10.90
2022-12-27T02:33:58.640Z,11.04
2022-12-27T02:36:29.190Z,11.02
2022-12-27T02:38:59.194Z,10.82
2022-12-27T02:41:46.156Z,11.02
2022-12-27T02:44:34.053Z,11.02
2022-12-27T02:47:19.992Z,11.03
2022-12-27T02:50:05.980Z,10.77
2022-12-27T02:52:59.626Z,10.85
2022-12-27T02:55:35.950Z,10.59
2022-12-27T02:58:20.240Z,10.76
2022-12-27T03:01:18.287Z,10.85
2022-12-27T03:03:57.012Z,11.11
2022-12-27T03:06:49.929Z,10.89
2022-12-27T03:09:51.309Z,11.01
2022-12-27T03:12:43.412Z,10.83
2022-12-27T03:15:44.712Z,10.45
2022-12-27T03:18:18.301Z,10.49
2022-12-27T03:21:05.800Z,10.58
2022-12-27T03:23:52.279Z,10.35
2022-12-27T03:26:21.105Z,10.51
2022-12-27T03:29:08.227Z,10.11
2022-12-27T03:31:57.200Z,10.56
2022-12-27T03:34:32.898Z,10.01
2022-12-27T03:37:20.830Z,9.77
2022-12-27T03:39:53.232Z,9.86
2022-12-27T03:42:42.697Z,9.45
2022-12-27T03:45:11.366Z,9.59
2022-12-27T03:47:43.803Z,9.69
2022-12-27T03:50:17.740Z,9.57
2022-12-27T03:52:49.201Z,9.46
2022-12-27T03:55:18.311Z,9.31
2022-12-27T03:57:46.633Z,9.35
2022-12-27T04:00:15.701Z,9.21
2022-12-27T04:02:44.611Z,8.96
2022-12-27T04:05:14.308Z,9.30
2022-12-27T04:08:00.261Z,9.01
2022-12-27T04:10:46.453Z,9.24
2022-12-27T04:13:32.349Z,9.01
2022-12-27T04:16:18.271Z,9.10
2022-12-27T04:19:04.191Z,9.02
2022-12-27T04:21:51.373Z,9.24
2022-12-27T04:24:37.276Z,9.37
2022-12-27T04:27:23.295Z,9.43
2022-12-27T04:30:09.210Z,9.33
2022-12-27T04:32:55.071Z,8.91
2022-12-27T04:35:23.429Z,8.62
2022-12-27T04:37:53.140Z,8.29
2022-12-27T04:40:39.056Z,8.43
2022-12-27T04:43:25.008Z,8.55
2022-12-27T04:46:11.038Z,8.46
2022-12-27T04:48:56.809Z,8.51
2022-12-27T04:51:42.730Z,8.39
2022-12-27T04:54:34.154Z,8.35
2022-12-27T04:57:02.453Z,8.35
2022-12-27T04:59:48.299Z,8.48
2022-12-27T05:02:17.018Z,8.36
2022-12-27T05:04:45.882Z,8.23
2022-12-27T05:07:32.460Z,8.38
2022-12-27T05:10:22.178Z,8.43
2022-12-27T05:13:08.123Z,8.79
2022-12-27T05:15:36.411Z,8.93
2022-12-27T05:18:04.966Z,9.03
2022-12-27T05:20:34.825Z,8.77
2022-12-27T05:23:20.873Z,8.65
2022-12-27T05:25:50.602Z,8.57
2022-12-27T05:28:18.869Z,8.32
2022-12-27T05:30:47.140Z,8.53
2022-12-27T05:33:15.485Z,8.46
2022-12-27T05:35:43.948Z,7.96
2022-12-27T05:38:12.198Z,7.73
2022-12-27T05:40:40.486Z,7.67
2022-12-27T05:43:10.097Z,7.66
2022-12-27T05:45:38.364Z,7.78
2022-12-27T05:48:07.129Z,7.71
2022-12-27T05:50:35.341Z,7.69
2022-12-27T05:53:03.601Z,7.72
2022-12-27T05:55:31.841Z,7.69
2022-12-27T05:58:00.130Z,7.89
2022-12-27T06:00:29.715Z,7.73
2022-12-27T06:02:58.270Z,7.91
2022-12-27T06:05:26.721Z,7.73
2022-12-27T06:07:55.118Z,7.81
2022-12-27T06:10:23.394Z,7.81
2022-12-27T06:12:51.739Z,7.81
2022-12-27T06:15:20.001Z,7.67
2022-12-27T06:17:49.603Z,7.73
2022-12-27T06:20:18.507Z,7.81
2022-12-27T06:22:47.116Z,7.68
2022-12-27T06:25:15.497Z,7.79
2022-12-27T06:27:43.810Z,7.84
2022-12-27T06:30:13.381Z,7.72
2022-12-27T06:32:41.655Z,7.66
2022-12-27T06:35:11.802Z,7.71
2022-12-27T06:37:40.068Z,8.06
2022-12-27T06:40:09.356Z,8.01
2022-12-27T06:42:37.647Z,7.93
2022-12-27T06:45:09.358Z,7.92
2022-12-27T06:47:37.706Z,8.05
2022-12-27T06:50:06.736Z,8.09
2022-12-27T06:52:36.385Z,7.68
2022-12-27T06:55:05.010Z,7.84
2022-12-27T06:57:33.669Z,7.85
2022-12-27T07:00:02.003Z,7.73
2022-12-27T07:02:30.332Z,7.38
2022-12-27T07:04:58.673Z,7.30
2022-12-27T07:07:27.111Z,7.19
2022-12-27T07:09:56.775Z,7.43
2022-12-27T07:12:25.125Z,7.52
2022-12-27T07:14:53.415Z,7.24
2022-12-27T07:17:21.705Z,7.01
2022-12-27T07:19:49.993Z,7.05
2022-12-27T07:22:18.284Z,7.51
2022-12-27T07:24:46.662Z,7.45
2022-12-27T07:27:16.354Z,7.42
2022-12-27T07:29:45.834Z,7.44
2022-12-27T07:32:14.296Z,7.54
2022-12-27T07:34:42.609Z,7.08
2022-12-27T07:37:10.959Z,7.22
2022-12-27T07:39:39.212Z,7.58
2022-12-27T07:42:08.620Z,7.51
2022-12-27T07:44:38.677Z,7.74
2022-12-27T07:47:07.772Z,7.64
2022-12-27T07:49:36.207Z,7.61
2022-12-27T07:52:04.580Z,7.89
2022-12-27T07:54:32.905Z,7.67
2022-12-27T07:57:01.212Z,7.58
2022-12-27T07:59:29.510Z,7.67
2022-12-27T08:02:08.100Z,7.59
2022-12-27T08:04:38.430Z,7.91
2022-12-27T08:07:08.516Z,7.90
2022-12-27T08:09:38.357Z,7.83
2022-12-27T08:12:07.776Z,7.96
2022-12-27T08:14:36.064Z,8.15
2022-12-27T08:17:08.506Z,8.43
2022-12-27T08:19:36.962Z,8.40
2022-12-27T08:22:06.268Z,8.59
2022-12-27T08:24:34.608Z,8.13
2022-12-27T08:27:03.047Z,8.63
2022-12-27T08:29:31.606Z,8.45
2022-12-27T08:31:59.994Z,9.03
2022-12-27T08:34:29.603Z,8.99
2022-12-27T08:36:57.928Z,9.13
2022-12-27T08:39:26.319Z,9.15
2022-12-27T08:41:54.938Z,9.18
2022-12-27T08:44:23.741Z,9.62
2022-12-27T08:46:52.200Z,9.51
2022-12-27T08:49:20.515Z,9.19
2022-12-27T08:51:51.397Z,9.78
2022-12-27T08:54:19.623Z,9.80
2022-12-27T08:56:47.975Z,10.04
2022-12-27T08:59:16.309Z,10.18
2022-12-27T09:01:44.711Z,9.95
2022-12-27T09:04:13.033Z,10.37
2022-12-27T09:06:42.180Z,10.27
2022-12-27T09:09:11.884Z,10.49
2022-12-27T09:11:40.224Z,10.41
2022-12-27T09:14:08.506Z,10.73
2022-12-27T09:16:36.825Z,10.94
2022-12-27T09:19:05.238Z,11.09
2022-12-27T09:21:34.875Z,11.18
2022-12-27T09:24:04.091Z,11.32
2022-12-27T09:26:33.844Z,11.10
2022-12-27T09:29:02.229Z,10.60
2022-12-27T09:31:30.718Z,11.12
2022-12-27T09:33:59.531Z,11.10
2022-12-27T09:36:29.115Z,11.31
2022-12-27T09:38:59.004Z,11.06
2022-12-27T09:44:31.950Z,10.65
2022-12-27T09:47:05.413Z,11.11
2022-12-27T09:49:38.525Z,10.69
2022-12-27T09:52:11.577Z,10.56
2022-12-27T09:54:52.269Z,10.79
2022-12-27T09:57:24.116Z,10.85
2022-12-27T09:59:56.676Z,10.68
2022-12-27T10:02:25.924Z,10.77
2022-12-27T10:07:50.963Z,10.79
2022-12-27T10:10:26.300Z,11.09
2022-12-27T10:13:09.913Z,10.97
2022-12-27T10:15:44.038Z,11.04
2022-12-27T10:18:19.825Z,11.17
2022-12-27T10:20:56.656Z,11.12
2022-12-27T10:23:26.456Z,11.08
2022-12-27T10:26:00.330Z,11.15
2022-12-27T10:28:37.800Z,11.07
2022-12-27T10:31:06.601Z,10.79
2022-12-27T10:33:35.404Z,11.05
2022-12-27T10:36:10.707Z,11.33
2022-12-27T10:38:38.928Z,11.67
2022-12-27T10:41:20.053Z,11.56
2022-12-27T10:43:52.689Z,11.14
2022-12-27T10:46:26.323Z,11.38
2022-12-27T10:51:50.131Z,11.45
2022-12-27T10:54:22.228Z,11.51
2022-12-27T10:56:50.773Z,11.56
2022-12-27T10:59:21.892Z,11.52
2022-12-27T11:01:51.970Z,11.71
2022-12-27T11:04:21.956Z,11.69
2022-12-27T11:06:52.622Z,12.31
2022-12-27T11:09:31.004Z,12.24
2022-12-27T11:12:18.766Z,12.24
2022-12-27T11:14:59.302Z,11.75
2022-12-27T11:17:30.730Z,11.20
2022-12-27T11:20:00.146Z,11.56
2022-12-27T11:22:28.443Z,11.48
2022-12-27T11:24:58.425Z,11.50
2022-12-27T11:27:28.643Z,11.26
2022-12-27T11:30:00.232Z,11.27
2022-12-27T11:32:28.614Z,11.19
2022-12-27T11:34:57.477Z,11.34
2022-12-27T11:37:27.407Z,11.41
2022-12-27T11:39:56.699Z,11.13
2022-12-27T11:42:32.479Z,11.78
2022-12-27T11:45:07.159Z,11.75
2022-12-27T11:47:40.421Z,11.47
2022-12-27T11:50:26.381Z,11.75
2022-12-27T11:53:18.143Z,11.93
2022-12-27T11:56:20.557Z,12.03
2022-12-27T11:59:11.407Z,12.40
2022-12-27T12:02:08.889Z,12.41
2022-12-27T12:05:04.876Z,12.07
2022-12-27T12:07:48.812Z,12.36
2022-12-27T12:10:25.863Z,12.55
2022-12-27T12:13:11.179Z,12.52
2022-12-27T12:15:50.288Z,11.95
2022-12-27T12:18:35.417Z,11.81
2022-12-27T12:21:22.310Z,11.80
2022-12-27T12:24:25.803Z,12.20
2022-12-27T12:27:06.827Z,11.71
2022-12-27T12:29:47.443Z,11.69
2022-12-27T12:32:25.887Z,11.84
2022-12-27T12:35:16.382Z,12.35
2022-12-27T12:38:03.684Z,11.93
2022-12-27T12:40:53.568Z,11.99
2022-12-27T12:43:36.156Z,11.98
2022-12-27T12:46:15.022Z,12.04
2022-12-27T12:49:05.458Z,11.96
2022-12-27T12:52:01.568Z,11.52
2022-12-27T12:54:48.369Z,11.83
2022-12-27T12:57:27.038Z,11.67
2022-12-27T13:00:08.944Z,11.83
2022-12-27T13:03:13.474Z,11.59
2022-12-27T13:05:47.069Z,11.21
2022-12-27T13:08:24.458Z,11.35
2022-12-27T13:11:14.417Z,11.43
2022-12-27T13:13:55.310Z,11.53
2022-12-27T13:16:29.258Z,11.95
2022-12-27T13:19:07.215Z,11.97
2022-12-27T13:21:52.476Z,11.58
2022-12-27T13:24:30.067Z,11.85
2022-12-27T13:27:03.618Z,11.82
2022-12-27T13:29:59.241Z,11.78
2022-12-27T13:32:41.973Z,12.05
2022-12-27T13:35:25.582Z,12.02
2022-12-27T13:38:02.777Z,11.81
2022-12-27T13:40:47.400Z,11.80
2022-12-27T13:43:37.729Z,11.73
2022-12-27T13:46:17.503Z,12.02
2022-12-27T13:48:57.244Z,12.11
2022-12-27T13:51:42.411Z,11.51
2022-12-27T13:54:46.238Z,12.06
2022-12-27T13:57:27.742Z,11.63
2022-12-27T14:00:09.068Z,11.54
2022-12-27T14:02:52.372Z,11.76
2022-12-27T14:06:01.935Z,11.75
2022-12-27T14:08:41.914Z,11.94
2022-12-27T14:11:23.052Z,12.35
2022-12-27T14:13:52.888Z,12.08
2022-12-27T14:16:29.945Z,12.46
2022-12-27T14:19:10.458Z,12.23
2022-12-27T14:21:59.434Z,12.33
2022-12-27T14:24:46.489Z,12.51
2022-12-27T14:28:04.693Z,12.23
2022-12-27T14:30:52.425Z,12.38
2022-12-27T14:33:56.505Z,12.17
2022-12-27T14:36:39.456Z,12.31
2022-12-27T14:39:39.333Z,12.35
2022-12-27T14:43:02.651Z,11.93
2022-12-27T14:45:57.673Z,11.90
2022-12-27T14:48:53.095Z,12.08
2022-12-27T14:52:00.344Z,12.14
2022-12-27T14:55:12.722Z,12.07
2022-12-27T14:57:48.772Z,11.72
2022-12-27T15:00:18.664Z,11.65
2022-12-27T15:03:03.966Z,11.13
2022-12-27T15:05:46.765Z,11.10
2022-12-27T15:08:35.080Z,11.62
2022-12-27T15:11:20.243Z,11.61
2022-12-27T15:14:01.101Z,11.54
2022-12-27T15:16:38.273Z,11.40
2022-12-27T15:19:21.079Z,11.33
2022-12-27T15:21:56.327Z,11.30
2022-12-27T15:24:32.169Z,11.21
2022-12-27T15:27:05.072Z,11.12
2022-12-27T15:29:43.554Z,11.06
2022-12-27T15:32:23.191Z,11.00
2022-12-27T15:35:04.965Z,10.96
2022-12-27T15:38:01.227Z,10.84
2022-12-27T15:40:40.774Z,10.78
2022-12-27T15:43:16.798Z,10.77
2022-12-27T15:45:49.521Z,10.67
2022-12-27T15:48:37.555Z,10.53
2022-12-27T15:51:10.576Z,10.38
2022-12-27T15:53:50.548Z,10.28
2022-12-27T15:56:37.752Z,10.12
2022-12-27T15:59:48.467Z,9.97
2022-12-27T16:02:35.459Z,9.96
2022-12-27T16:05:12.807Z,9.92
2022-12-27T16:07:48.591Z,9.80
2022-12-27T16:10:38.343Z,9.68
2022-12-27T16:13:23.715Z,9.63
2022-12-27T16:15:54.282Z,9.56
2022-12-27T16:18:55.505Z,9.18
2022-12-27T16:21:25.065Z,9.06
2022-12-27T16:23:57.205Z,8.58
2022-12-27T16:26:27.821Z,8.54
2022-12-27T16:28:57.465Z,8.53
2022-12-27T16:31:28.419Z,8.61
2022-12-27T16:33:58.071Z,8.70
2022-12-27T16:36:29.789Z,8.31
2022-12-27T16:39:31.160Z,8.25
2022-12-27T16:42:09.653Z,8.18
2022-12-27T16:44:54.957Z,7.58
2022-12-27T16:47:48.391Z,8.11
2022-12-27T16:50:40.685Z,8.28
2022-12-27T16:53:16.754Z,8.27
2022-12-27T16:56:14.222Z,8.23
2022-12-27T16:58:42.898Z,8.35
2022-12-27T17:01:29.857Z,8.36
2022-12-27T17:03:58.982Z,8.41
2022-12-27T17:06:57.829Z,8.40
2022-12-27T17:09:41.453Z,8.38
2022-12-27T17:12:28.752Z,8.40
2022-12-27T17:15:02.983Z,8.42
2022-12-27T17:17:31.477Z,8.46
2022-12-27T17:20:03.207Z,8.49
2022-12-27T17:22:35.310Z,8.58
2022-12-27T17:25:04.915Z,8.56
2022-12-27T17:27:48.541Z,8.67
2022-12-27T17:30:21.148Z,8.62
2022-12-27T17:33:11.220Z,8.41
2022-12-27T17:35:47.795Z,8.03
2022-12-27T17:38:26.078Z,7.87
2022-12-27T17:41:04.412Z,7.52
2022-12-27T17:43:58.600Z,7.98
2022-12-27T17:46:35.939Z,7.93
2022-12-27T17:49:05.418Z,7.64
2022-12-27T17:51:35.713Z,7.82
2022-12-27T17:54:40.037Z,7.69
2022-12-27T17:57:29.516Z,8.27
2022-12-27T17:59:59.899Z,8.35
2022-12-27T18:02:34.404Z,8.39
2022-12-27T18:05:05.679Z,8.39
2022-12-27T18:07:35.199Z,8.29
2022-12-27T18:10:05.822Z,8.17
2022-12-27T18:12:35.981Z,7.78
2022-12-27T18:15:08.775Z,7.89
2022-12-27T18:17:39.457Z,8.00
2022-12-27T18:20:26.179Z,7.92
2022-12-27T18:22:54.660Z,7.90
2022-12-27T18:25:25.131Z,7.98
2022-12-27T18:27:59.705Z,7.76
2022-12-27T18:30:34.557Z,7.90
2022-12-27T18:33:04.171Z,7.98
2022-12-27T18:35:32.658Z,8.03
2022-12-27T18:38:01.767Z,8.08
2022-12-27T18:40:30.018Z,8.12
2022-12-27T18:42:58.358Z,8.16
2022-12-27T18:45:29.798Z,8.01
2022-12-27T18:48:00.223Z,8.07
2022-12-27T18:50:30.532Z,8.18
2022-12-27T18:53:02.158Z,7.99
2022-12-27T18:55:32.082Z,8.02
2022-12-27T18:58:06.206Z,8.01
2022-12-27T19:00:48.389Z,8.02
2022-12-27T19:03:18.467Z,7.91
2022-12-27T19:05:59.920Z,7.94
2022-12-27T19:08:41.309Z,7.95
2022-12-27T19:11:09.660Z,8.00
2022-12-27T19:13:43.247Z,7.97
2022-12-27T19:16:23.459Z,8.00
2022-12-27T19:18:54.071Z,7.99
2022-12-27T19:21:30.528Z,8.03
2022-12-27T19:23:58.806Z,8.08
2022-12-27T19:26:31.501Z,8.05
2022-12-27T19:29:03.490Z,7.92
2022-12-27T19:31:33.551Z,8.02
2022-12-27T19:34:03.442Z,7.97
2022-12-27T19:36:33.643Z,7.90
2022-12-27T19:39:03.151Z,7.76
2022-12-27T19:41:31.923Z,7.84
2022-12-27T19:44:00.176Z,7.83
2022-12-27T19:46:31.070Z,7.76
2022-12-27T19:49:32.286Z,7.76
2022-12-27T19:51:49.414Z,7.79
2022-12-27T19:54:19.448Z,7.75
2022-12-27T19:56:47.885Z,7.75
2022-12-27T19:59:18.213Z,7.61
2022-12-27T20:01:46.730Z,7.56
2022-12-27T20:04:17.727Z,7.56
2022-12-27T20:06:48.509Z,7.56
2022-12-27T20:09:19.046Z,7.55
2022-12-27T20:11:47.909Z,7.40
2022-12-27T20:14:17.655Z,7.44
2022-12-27T20:16:46.647Z,7.47
2022-12-27T20:19:18.127Z,7.51
2022-12-27T20:21:46.599Z,7.44
2022-12-27T20:24:15.141Z,7.16
2022-12-27T20:26:44.090Z,7.34
2022-12-27T20:29:12.751Z,7.47
2022-12-27T20:31:45.012Z,7.45
2022-12-27T20:34:13.910Z,7.39
2022-12-27T20:36:44.666Z,7.31
2022-12-27T20:39:12.964Z,7.27
2022-12-27T20:41:41.266Z,7.30
2022-12-27T20:44:09.580Z,6.85
2022-12-27T20:46:37.881Z,6.90
2022-12-27T20:49:06.993Z,6.89
2022-12-27T20:51:35.375Z,6.60
2022-12-27T20:54:05.157Z,6.66
2022-12-27T20:56:35.167Z,6.65
2022-12-27T20:59:03.672Z,6.58
2022-12-27T21:01:31.990Z,6.58
2022-12-27T21:04:00.595Z,6.59
2022-12-27T21:06:30.121Z,6.56
2022-12-27T21:08:59.355Z,6.56
2022-12-27T21:11:31.156Z,6.58
2022-12-27T21:14:00.731Z,6.55
2022-12-27T21:16:31.053Z,6.55
2022-12-27T21:19:02.908Z,6.52
2022-12-27T21:21:31.939Z,6.65
2022-12-27T21:24:00.271Z,6.68
2022-12-27T21:26:31.364Z,6.68
2022-12-27T21:29:00.654Z,6.69
2022-12-27T21:31:29.314Z,6.71
2022-12-27T21:33:59.185Z,6.65
2022-12-27T21:36:29.047Z,6.64
2022-12-27T21:38:57.556Z,6.44
2022-12-27T21:41:27.442Z,6.41
2022-12-27T21:43:57.099Z,6.44
2022-12-27T21:46:27.686Z,6.49
2022-12-27T21:48:58.120Z,6.49
2022-12-27T21:51:27.329Z,6.49
2022-12-27T21:53:55.809Z,6.46
2022-12-27T21:56:24.681Z,6.40
2022-12-27T21:58:55.306Z,6.40
2022-12-27T22:01:25.443Z,6.36
2022-12-27T22:03:54.620Z,6.43
2022-12-27T22:06:24.885Z,6.45
2022-12-27T22:08:54.555Z,6.55
2022-12-27T22:11:24.066Z,6.53
2022-12-27T22:13:52.515Z,6.56
2022-12-27T22:16:22.229Z,6.53
2022-12-27T22:18:52.619Z,6.56
2022-12-27T22:21:22.337Z,6.52
2022-12-27T22:23:52.231Z,6.58
2022-12-27T22:26:21.894Z,6.56
2022-12-27T22:28:50.458Z,6.55
2022-12-27T22:31:20.431Z,6.56
2022-12-27T22:33:50.994Z,6.51
2022-12-27T22:36:20.572Z,6.49
2022-12-27T22:38:50.261Z,6.46
2022-12-27T22:41:21.420Z,6.37
2022-12-27T22:43:52.122Z,6.31
2022-12-27T22:46:20.734Z,6.27
2022-12-27T22:48:54.675Z,6.21
2022-12-27T22:51:24.127Z,6.21
2022-12-27T22:53:52.438Z,6.20
2022-12-27T22:56:22.344Z,6.12
2022-12-27T22:58:50.564Z,5.80
2022-12-27T23:01:20.879Z,5.79
2022-12-27T23:03:49.455Z,5.80
2022-12-27T23:06:19.228Z,5.87
2022-12-27T23:08:48.156Z,5.89
2022-12-27T23:11:18.305Z,5.99
2022-12-27T23:13:47.214Z,6.02
2022-12-27T23:16:15.843Z,6.02
2022-12-27T23:18:44.204Z,6.02
2022-12-27T23:21:21.523Z,6.10
2022-12-27T23:23:53.862Z,6.04
2022-12-27T23:26:23.622Z,5.96
2022-12-27T23:28:53.198Z,5.90
2022-12-27T23:31:22.935Z,5.88
2022-12-27T23:33:51.629Z,5.89
2022-12-27T23:36:20.584Z,5.91
2022-12-27T23:38:48.914Z,5.87
2022-12-27T23:41:20.139Z,5.82
2022-12-27T23:43:52.664Z,5.77
2022-12-27T23:46:25.005Z,5.75
2022-12-27T23:48:53.862Z,5.72
2022-12-27T23:51:22.424Z,5.71
2022-12-27T23:53:50.913Z,5.70
2022-12-27T23:56:21.821Z,5.70
2022-12-27T23:58:51.609Z,5.84
